Terminal Aerodrome Forecast
Issued by NWS

Home | Current Version | Previous Version | Graphics & Text | Print | Product List | Glossary On
Versions: 1 2 3 4 5 6 7 8 9 10 11 12 13 14 15 16 17 18 19 20 21 22 23 24 25 26 27 28
546
FTUS43 KGRB 231729
TAFATW
TAF
KATW 231729Z 2318/2418 15013G20KT P6SM OVC070
     FM240200 15009KT P6SM -RA OVC040 WS020/20045KT
     FM240500 17007KT 6SM -RA BR SCT020 OVC035 WS020/24004KT
      TEMPO 2405/2409 3SM -RA BR BKN020
     FM240900 20004KT 3SM -RA BR OVC012 WS020/27030KT
     FM241200 VRB03KT 4SM BR VCSH OVC006
     FM241700 03004KT 3SM -RA BR OVC006=

USA.gov is the U.S. government's official web portal to all federal, state and local government web resources and services.